sensor_id;sensor_type;location;lat;lon;timestamp;P1;durP1;ratioP1;P2;durP2;ratioP2
14330;SDS011;7249;49.376;11.080;2024-03-06T00:02:23;10.83;;;4.47;;
14330;SDS011;7249;49.376;11.080;2024-03-06T00:04:49;8.23;;;4.57;;
14330;SDS011;7249;49.376;11.080;2024-03-06T00:07:15;7.23;;;4.70;;
14330;SDS011;7249;49.376;11.080;2024-03-06T00:09:41;10.23;;;5.43;;
14330;SDS011;7249;49.376;11.080;2024-03-06T00:12:07;8.27;;;5.33;;
14330;SDS011;7249;49.376;11.080;2024-03-06T00:14:32;8.77;;;5.10;;
14330;SDS011;7249;49.376;11.080;2024-03-06T00:17:01;8.50;;;5.13;;
14330;SDS011;7249;49.376;11.080;2024-03-06T00:19:29;9.23;;;5.37;;
14330;SDS011;7249;49.376;11.080;2024-03-06T00:21:55;8.40;;;4.47;;
14330;SDS011;7249;49.376;11.080;2024-03-06T00:24:21;11.67;;;5.30;;
14330;SDS011;7249;49.376;11.080;2024-03-06T00:26:48;7.80;;;4.77;;
14330;SDS011;7249;49.376;11.080;2024-03-06T00:29:14;7.50;;;5.20;;
14330;SDS011;7249;49.376;11.080;2024-03-06T00:31:43;7.70;;;4.40;;
14330;SDS011;7249;49.376;11.080;2024-03-06T00:34:10;7.63;;;5.03;;
14330;SDS011;7249;49.376;11.080;2024-03-06T00:36:42;6.33;;;4.23;;
14330;SDS011;7249;49.376;11.080;2024-03-06T00:39:08;8.27;;;4.37;;
14330;SDS011;7249;49.376;11.080;2024-03-06T00:41:35;6.93;;;4.13;;
14330;SDS011;7249;49.376;11.080;2024-03-06T00:44:01;8.47;;;5.17;;
14330;SDS011;7249;49.376;11.080;2024-03-06T00:46:27;10.37;;;5.03;;
14330;SDS011;7249;49.376;11.080;2024-03-06T00:48:53;5.83;;;4.43;;
14330;SDS011;7249;49.376;11.080;2024-03-06T00:51:18;8.73;;;4.90;;
14330;SDS011;7249;49.376;11.080;2024-03-06T00:53:44;8.47;;;4.20;;
14330;SDS011;7249;49.376;11.080;2024-03-06T00:56:10;7.20;;;4.53;;
14330;SDS011;7249;49.376;11.080;2024-03-06T00:58:36;7.27;;;3.80;;
14330;SDS011;7249;49.376;11.080;2024-03-06T01:01:02;10.23;;;5.60;;
14330;SDS011;7249;49.376;11.080;2024-03-06T01:03:28;7.20;;;4.87;;
14330;SDS011;7249;49.376;11.080;2024-03-06T01:05:53;6.73;;;4.57;;
14330;SDS011;7249;49.376;11.080;2024-03-06T01:08:21;9.67;;;4.80;;
14330;SDS011;7249;49.376;11.080;2024-03-06T01:10:50;10.27;;;5.20;;
14330;SDS011;7249;49.376;11.080;2024-03-06T01:13:16;8.80;;;5.03;;
14330;SDS011;7249;49.376;11.080;2024-03-06T01:15:42;8.93;;;5.20;;
14330;SDS011;7249;49.376;11.080;2024-03-06T01:18:08;8.80;;;4.83;;
14330;SDS011;7249;49.376;11.080;2024-03-06T01:20:34;8.57;;;4.90;;
14330;SDS011;7249;49.376;11.080;2024-03-06T01:23:01;9.80;;;5.17;;
14330;SDS011;7249;49.376;11.080;2024-03-06T01:25:26;6.40;;;4.33;;
14330;SDS011;7249;49.376;11.080;2024-03-06T01:27:52;7.33;;;5.10;;
14330;SDS011;7249;49.376;11.080;2024-03-06T01:30:18;7.80;;;3.97;;
14330;SDS011;7249;49.376;11.080;2024-03-06T01:32:44;6.60;;;3.73;;
14330;SDS011;7249;49.376;11.080;2024-03-06T01:35:09;8.53;;;4.17;;
14330;SDS011;7249;49.376;11.080;2024-03-06T01:37:35;7.03;;;4.37;;
14330;SDS011;7249;49.376;11.080;2024-03-06T01:40:01;6.97;;;4.30;;
14330;SDS011;7249;49.376;11.080;2024-03-06T01:42:29;6.83;;;4.90;;
14330;SDS011;7249;49.376;11.080;2024-03-06T01:44:55;7.63;;;4.73;;
14330;SDS011;7249;49.376;11.080;2024-03-06T01:47:20;7.77;;;5.03;;
14330;SDS011;7249;49.376;11.080;2024-03-06T01:49:46;11.57;;;6.23;;
14330;SDS011;7249;49.376;11.080;2024-03-06T01:52:13;11.93;;;6.67;;
14330;SDS011;7249;49.376;11.080;2024-03-06T01:54:41;10.10;;;5.50;;
14330;SDS011;7249;49.376;11.080;2024-03-06T01:57:07;10.17;;;5.17;;
14330;SDS011;7249;49.376;11.080;2024-03-06T01:59:35;9.47;;;5.13;;
14330;SDS011;7249;49.376;11.080;2024-03-06T02:02:01;9.90;;;5.10;;
14330;SDS011;7249;49.376;11.080;2024-03-06T02:04:28;9.57;;;4.60;;
14330;SDS011;7249;49.376;11.080;2024-03-06T02:06:55;7.93;;;4.50;;
14330;SDS011;7249;49.376;11.080;2024-03-06T02:09:21;9.07;;;5.33;;
14330;SDS011;7249;49.376;11.080;2024-03-06T02:11:48;6.37;;;4.30;;
14330;SDS011;7249;49.376;11.080;2024-03-06T02:14:15;10.67;;;5.10;;
14330;SDS011;7249;49.376;11.080;2024-03-06T02:16:41;11.87;;;5.60;;
14330;SDS011;7249;49.376;11.080;2024-03-06T02:19:07;7.30;;;4.80;;
14330;SDS011;7249;49.376;11.080;2024-03-06T02:21:33;11.83;;;5.50;;
14330;SDS011;7249;49.376;11.080;2024-03-06T02:23:59;10.83;;;5.70;;
14330;SDS011;7249;49.376;11.080;2024-03-06T02:26:25;13.63;;;6.13;;
14330;SDS011;7249;49.376;11.080;2024-03-06T02:28:51;10.53;;;5.63;;
14330;SDS011;7249;49.376;11.080;2024-03-06T02:31:21;8.77;;;5.60;;
14330;SDS011;7249;49.376;11.080;2024-03-06T02:33:48;9.90;;;5.93;;
14330;SDS011;7249;49.376;11.080;2024-03-06T02:36:17;10.97;;;5.90;;
14330;SDS011;7249;49.376;11.080;2024-03-06T02:38:44;11.67;;;5.80;;
14330;SDS011;7249;49.376;11.080;2024-03-06T02:41:10;11.47;;;6.10;;
14330;SDS011;7249;49.376;11.080;2024-03-06T02:43:38;10.73;;;6.53;;
14330;SDS011;7249;49.376;11.080;2024-03-06T02:46:04;10.60;;;6.40;;
14330;SDS011;7249;49.376;11.080;2024-03-06T02:48:30;12.17;;;6.83;;
14330;SDS011;7249;49.376;11.080;2024-03-06T02:50:56;13.10;;;6.30;;
14330;SDS011;7249;49.376;11.080;2024-03-06T02:53:22;10.93;;;6.13;;
14330;SDS011;7249;49.376;11.080;2024-03-06T02:55:48;12.93;;;6.20;;
14330;SDS011;7249;49.376;11.080;2024-03-06T02:58:14;12.80;;;6.57;;
14330;SDS011;7249;49.376;11.080;2024-03-06T03:00:41;9.67;;;6.37;;
14330;SDS011;7249;49.376;11.080;2024-03-06T03:03:08;10.07;;;6.27;;
14330;SDS011;7249;49.376;11.080;2024-03-06T03:05:35;9.93;;;6.40;;
14330;SDS011;7249;49.376;11.080;2024-03-06T03:08:01;11.63;;;6.43;;
14330;SDS011;7249;49.376;11.080;2024-03-06T03:10:26;10.60;;;5.83;;
14330;SDS011;7249;49.376;11.080;2024-03-06T03:12:52;15.83;;;8.10;;
14330;SDS011;7249;49.376;11.080;2024-03-06T03:15:19;11.50;;;6.87;;
14330;SDS011;7249;49.376;11.080;2024-03-06T03:17:45;11.20;;;6.30;;
14330;SDS011;7249;49.376;11.080;2024-03-06T03:20:11;15.23;;;8.30;;
14330;SDS011;7249;49.376;11.080;2024-03-06T03:22:37;12.20;;;7.73;;
14330;SDS011;7249;49.376;11.080;2024-03-06T03:25:09;13.93;;;6.90;;
14330;SDS011;7249;49.376;11.080;2024-03-06T03:27:39;12.00;;;6.97;;
14330;SDS011;7249;49.376;11.080;2024-03-06T03:30:09;17.17;;;7.43;;
14330;SDS011;7249;49.376;11.080;2024-03-06T03:32:36;13.83;;;7.03;;
14330;SDS011;7249;49.376;11.080;2024-03-06T03:35:03;18.40;;;8.37;;
14330;SDS011;7249;49.376;11.080;2024-03-06T03:37:30;10.87;;;6.80;;
14330;SDS011;7249;49.376;11.080;2024-03-06T03:39:56;14.60;;;6.93;;
14330;SDS011;7249;49.376;11.080;2024-03-06T03:42:22;16.13;;;8.43;;
14330;SDS011;7249;49.376;11.080;2024-03-06T03:44:47;15.93;;;7.60;;
14330;SDS011;7249;49.376;11.080;2024-03-06T03:47:13;15.40;;;7.63;;
14330;SDS011;7249;49.376;11.080;2024-03-06T03:49:39;13.73;;;8.03;;
14330;SDS011;7249;49.376;11.080;2024-03-06T03:52:04;16.23;;;7.73;;
14330;SDS011;7249;49.376;11.080;2024-03-06T03:54:30;17.87;;;7.27;;
14330;SDS011;7249;49.376;11.080;2024-03-06T03:56:55;14.50;;;7.93;;
14330;SDS011;7249;49.376;11.080;2024-03-06T03:59:21;12.07;;;7.13;;
14330;SDS011;7249;49.376;11.080;2024-03-06T04:01:47;14.63;;;8.00;;
14330;SDS011;7249;49.376;11.080;2024-03-06T04:04:13;14.30;;;7.97;;
14330;SDS011;7249;49.376;11.080;2024-03-06T04:06:38;15.03;;;8.10;;
14330;SDS011;7249;49.376;11.080;2024-03-06T04:09:04;13.20;;;7.77;;
14330;SDS011;7249;49.376;11.080;2024-03-06T04:11:30;12.23;;;7.50;;
14330;SDS011;7249;49.376;11.080;2024-03-06T04:13:59;16.77;;;8.10;;
14330;SDS011;7249;49.376;11.080;2024-03-06T04:16:24;19.90;;;8.10;;
14330;SDS011;7249;49.376;11.080;2024-03-06T04:18:51;15.40;;;7.10;;
14330;SDS011;7249;49.376;11.080;2024-03-06T04:21:16;14.17;;;7.70;;
14330;SDS011;7249;49.376;11.080;2024-03-06T04:23:43;17.80;;;8.13;;
14330;SDS011;7249;49.376;11.080;2024-03-06T04:26:09;12.33;;;7.53;;
14330;SDS011;7249;49.376;11.080;2024-03-06T04:28:34;16.07;;;7.70;;
14330;SDS011;7249;49.376;11.080;2024-03-06T04:31:00;14.67;;;7.80;;
14330;SDS011;7249;49.376;11.080;2024-03-06T04:33:26;17.50;;;8.37;;
14330;SDS011;7249;49.376;11.080;2024-03-06T04:35:51;17.07;;;8.40;;
14330;SDS011;7249;49.376;11.080;2024-03-06T04:38:17;16.50;;;8.17;;
14330;SDS011;7249;49.376;11.080;2024-03-06T04:40:43;16.30;;;7.93;;
14330;SDS011;7249;49.376;11.080;2024-03-06T04:43:10;14.80;;;7.37;;
14330;SDS011;7249;49.376;11.080;2024-03-06T04:45:35;14.40;;;7.83;;
14330;SDS011;7249;49.376;11.080;2024-03-06T04:48:01;16.23;;;8.17;;
14330;SDS011;7249;49.376;11.080;2024-03-06T04:50:27;14.50;;;8.47;;
14330;SDS011;7249;49.376;11.080;2024-03-06T04:52:53;14.73;;;7.43;;
14330;SDS011;7249;49.376;11.080;2024-03-06T04:55:18;13.80;;;7.70;;
14330;SDS011;7249;49.376;11.080;2024-03-06T04:57:47;15.53;;;9.33;;
14330;SDS011;7249;49.376;11.080;2024-03-06T05:00:13;18.67;;;8.67;;
14330;SDS011;7249;49.376;11.080;2024-03-06T05:02:40;16.93;;;8.57;;
14330;SDS011;7249;49.376;11.080;2024-03-06T05:05:07;19.33;;;10.13;;
14330;SDS011;7249;49.376;11.080;2024-03-06T05:07:33;16.20;;;8.43;;
14330;SDS011;7249;49.376;11.080;2024-03-06T05:09:59;17.10;;;8.30;;
14330;SDS011;7249;49.376;11.080;2024-03-06T05:12:25;13.90;;;7.40;;
14330;SDS011;7249;49.376;11.080;2024-03-06T05:14:52;17.40;;;9.00;;
14330;SDS011;7249;49.376;11.080;2024-03-06T05:17:18;13.83;;;7.90;;
14330;SDS011;7249;49.376;11.080;2024-03-06T05:19:45;19.77;;;9.23;;
14330;SDS011;7249;49.376;11.080;2024-03-06T05:22:12;23.47;;;10.10;;
14330;SDS011;7249;49.376;11.080;2024-03-06T05:24:39;20.90;;;8.50;;
14330;SDS011;7249;49.376;11.080;2024-03-06T05:27:05;15.03;;;8.43;;
14330;SDS011;7249;49.376;11.080;2024-03-06T05:29:31;19.37;;;8.50;;
14330;SDS011;7249;49.376;11.080;2024-03-06T05:31:57;14.83;;;8.67;;
14330;SDS011;7249;49.376;11.080;2024-03-06T05:34:23;19.60;;;9.17;;
14330;SDS011;7249;49.376;11.080;2024-03-06T05:36:49;14.33;;;7.83;;
14330;SDS011;7249;49.376;11.080;2024-03-06T05:39:15;19.23;;;7.37;;
14330;SDS011;7249;49.376;11.080;2024-03-06T05:41:43;19.53;;;8.90;;
14330;SDS011;7249;49.376;11.080;2024-03-06T05:44:09;18.17;;;8.70;;
14330;SDS011;7249;49.376;11.080;2024-03-06T05:46:35;14.27;;;7.47;;
14330;SDS011;7249;49.376;11.080;2024-03-06T05:49:01;18.93;;;8.17;;
14330;SDS011;7249;49.376;11.080;2024-03-06T05:51:27;19.70;;;8.23;;
14330;SDS011;7249;49.376;11.080;2024-03-06T05:53:53;14.40;;;7.30;;
14330;SDS011;7249;49.376;11.080;2024-03-06T05:56:19;15.27;;;7.90;;
14330;SDS011;7249;49.376;11.080;2024-03-06T05:58:45;16.53;;;8.17;;
14330;SDS011;7249;49.376;11.080;2024-03-06T06:01:15;15.80;;;9.07;;
14330;SDS011;7249;49.376;11.080;2024-03-06T06:03:44;15.03;;;7.40;;
14330;SDS011;7249;49.376;11.080;2024-03-06T06:06:09;16.70;;;7.87;;
14330;SDS011;7249;49.376;11.080;2024-03-06T06:08:35;15.97;;;7.60;;
14330;SDS011;7249;49.376;11.080;2024-03-06T06:11:03;18.80;;;8.07;;
14330;SDS011;7249;49.376;11.080;2024-03-06T06:13:29;19.00;;;8.03;;
14330;SDS011;7249;49.376;11.080;2024-03-06T06:15:57;14.47;;;6.93;;
14330;SDS011;7249;49.376;11.080;2024-03-06T06:18:23;17.07;;;8.90;;
14330;SDS011;7249;49.376;11.080;2024-03-06T06:20:49;17.07;;;8.90;;
14330;SDS011;7249;49.376;11.080;2024-03-06T06:23:14;17.07;;;8.40;;
14330;SDS011;7249;49.376;11.080;2024-03-06T06:25:40;12.93;;;7.47;;
14330;SDS011;7249;49.376;11.080;2024-03-06T06:28:06;14.23;;;7.40;;
14330;SDS011;7249;49.376;11.080;2024-03-06T06:30:31;15.83;;;8.17;;
14330;SDS011;7249;49.376;11.080;2024-03-06T06:32:57;21.57;;;9.83;;
14330;SDS011;7249;49.376;11.080;2024-03-06T06:35:23;16.47;;;7.60;;
14330;SDS011;7249;49.376;11.080;2024-03-06T06:37:50;21.23;;;9.63;;
14330;SDS011;7249;49.376;11.080;2024-03-06T06:40:15;19.43;;;8.83;;
14330;SDS011;7249;49.376;11.080;2024-03-06T06:42:45;15.73;;;7.83;;
14330;SDS011;7249;49.376;11.080;2024-03-06T06:45:14;15.70;;;8.13;;
14330;SDS011;7249;49.376;11.080;2024-03-06T06:47:41;15.50;;;7.77;;
14330;SDS011;7249;49.376;11.080;2024-03-06T06:50:06;20.87;;;9.40;;
14330;SDS011;7249;49.376;11.080;2024-03-06T06:52:34;17.90;;;8.83;;
14330;SDS011;7249;49.376;11.080;2024-03-06T06:55:00;17.33;;;8.13;;
14330;SDS011;7249;49.376;11.080;2024-03-06T06:57:26;16.60;;;8.60;;
14330;SDS011;7249;49.376;11.080;2024-03-06T06:59:52;18.53;;;8.97;;
14330;SDS011;7249;49.376;11.080;2024-03-06T07:02:17;16.60;;;9.93;;
14330;SDS011;7249;49.376;11.080;2024-03-06T07:04:43;19.47;;;9.43;;
14330;SDS011;7249;49.376;11.080;2024-03-06T07:07:09;18.63;;;9.20;;
14330;SDS011;7249;49.376;11.080;2024-03-06T07:09:35;15.27;;;7.53;;
14330;SDS011;7249;49.376;11.080;2024-03-06T07:12:00;14.10;;;8.90;;
14330;SDS011;7249;49.376;11.080;2024-03-06T07:14:27;17.63;;;8.23;;
14330;SDS011;7249;49.376;11.080;2024-03-06T07:16:53;17.20;;;9.60;;
14330;SDS011;7249;49.376;11.080;2024-03-06T07:19:19;15.37;;;8.17;;
14330;SDS011;7249;49.376;11.080;2024-03-06T07:21:45;14.83;;;8.13;;
14330;SDS011;7249;49.376;11.080;2024-03-06T07:24:11;15.80;;;8.50;;
14330;SDS011;7249;49.376;11.080;2024-03-06T07:26:36;13.07;;;8.40;;
14330;SDS011;7249;49.376;11.080;2024-03-06T07:29:02;14.70;;;6.87;;
14330;SDS011;7249;49.376;11.080;2024-03-06T07:31:28;17.13;;;8.27;;
14330;SDS011;7249;49.376;11.080;2024-03-06T07:33:54;15.23;;;7.93;;
14330;SDS011;7249;49.376;11.080;2024-03-06T07:36:20;16.13;;;8.60;;
14330;SDS011;7249;49.376;11.080;2024-03-06T07:38:47;16.93;;;8.30;;
14330;SDS011;7249;49.376;11.080;2024-03-06T07:41:12;13.90;;;7.03;;
14330;SDS011;7249;49.376;11.080;2024-03-06T07:43:38;17.90;;;8.23;;
14330;SDS011;7249;49.376;11.080;2024-03-06T07:46:04;14.80;;;7.90;;
14330;SDS011;7249;49.376;11.080;2024-03-06T07:48:36;16.77;;;8.37;;
14330;SDS011;7249;49.376;11.080;2024-03-06T07:51:02;16.13;;;7.80;;
14330;SDS011;7249;49.376;11.080;2024-03-06T07:53:28;14.23;;;7.47;;
14330;SDS011;7249;49.376;11.080;2024-03-06T07:55:53;16.50;;;7.37;;
14330;SDS011;7249;49.376;11.080;2024-03-06T07:58:19;15.40;;;7.30;;
14330;SDS011;7249;49.376;11.080;2024-03-06T08:00:46;14.17;;;7.27;;
14330;SDS011;7249;49.376;11.080;2024-03-06T08:03:12;13.43;;;7.73;;
14330;SDS011;7249;49.376;11.080;2024-03-06T08:05:38;13.60;;;7.83;;
14330;SDS011;7249;49.376;11.080;2024-03-06T08:08:04;13.93;;;7.43;;
14330;SDS011;7249;49.376;11.080;2024-03-06T08:10:30;14.00;;;7.57;;
14330;SDS011;7249;49.376;11.080;2024-03-06T08:12:56;15.37;;;6.83;;
14330;SDS011;7249;49.376;11.080;2024-03-06T08:15:22;14.37;;;6.77;;
14330;SDS011;7249;49.376;11.080;2024-03-06T08:17:48;15.83;;;6.70;;
14330;SDS011;7249;49.376;11.080;2024-03-06T08:20:14;12.13;;;6.33;;
14330;SDS011;7249;49.376;11.080;2024-03-06T08:22:41;11.67;;;6.57;;
14330;SDS011;7249;49.376;11.080;2024-03-06T08:25:07;14.77;;;6.77;;
14330;SDS011;7249;49.376;11.080;2024-03-06T08:27:35;12.03;;;6.93;;
14330;SDS011;7249;49.376;11.080;2024-03-06T08:30:01;15.10;;;6.63;;
14330;SDS011;7249;49.376;11.080;2024-03-06T08:32:31;14.53;;;6.20;;
14330;SDS011;7249;49.376;11.080;2024-03-06T08:35:10;10.53;;;6.10;;
14330;SDS011;7249;49.376;11.080;2024-03-06T08:37:37;11.63;;;5.90;;
14330;SDS011;7249;49.376;11.080;2024-03-06T08:40:04;9.00;;;5.40;;
14330;SDS011;7249;49.376;11.080;2024-03-06T08:42:32;10.90;;;5.57;;
14330;SDS011;7249;49.376;11.080;2024-03-06T08:44:58;11.90;;;6.60;;
14330;SDS011;7249;49.376;11.080;2024-03-06T08:47:23;13.80;;;7.03;;
14330;SDS011;7249;49.376;11.080;2024-03-06T08:49:49;14.40;;;6.63;;
14330;SDS011;7249;49.376;11.080;2024-03-06T08:52:15;12.03;;;6.77;;
14330;SDS011;7249;49.376;11.080;2024-03-06T08:54:41;12.00;;;6.03;;
14330;SDS011;7249;49.376;11.080;2024-03-06T08:57:07;12.67;;;6.37;;
14330;SDS011;7249;49.376;11.080;2024-03-06T08:59:33;11.63;;;5.50;;
14330;SDS011;7249;49.376;11.080;2024-03-06T09:02:11;11.20;;;6.57;;
14330;SDS011;7249;49.376;11.080;2024-03-06T09:04:46;11.57;;;6.07;;
14330;SDS011;7249;49.376;11.080;2024-03-06T09:07:12;12.83;;;6.30;;
14330;SDS011;7249;49.376;11.080;2024-03-06T09:09:38;10.80;;;6.07;;
14330;SDS011;7249;49.376;11.080;2024-03-06T09:12:07;12.87;;;6.13;;
14330;SDS011;7249;49.376;11.080;2024-03-06T09:14:37;12.30;;;5.87;;
14330;SDS011;7249;49.376;11.080;2024-03-06T09:17:03;12.70;;;5.97;;
14330;SDS011;7249;49.376;11.080;2024-03-06T09:19:30;15.60;;;6.83;;
14330;SDS011;7249;49.376;11.080;2024-03-06T09:21:56;13.23;;;6.17;;
14330;SDS011;7249;49.376;11.080;2024-03-06T09:24:23;10.77;;;5.63;;
14330;SDS011;7249;49.376;11.080;2024-03-06T09:26:50;14.07;;;7.20;;
14330;SDS011;7249;49.376;11.080;2024-03-06T09:29:16;12.17;;;6.20;;
14330;SDS011;7249;49.376;11.080;2024-03-06T09:31:42;11.43;;;6.33;;
14330;SDS011;7249;49.376;11.080;2024-03-06T09:34:08;13.07;;;6.63;;
14330;SDS011;7249;49.376;11.080;2024-03-06T09:36:37;12.60;;;6.07;;
14330;SDS011;7249;49.376;11.080;2024-03-06T09:39:04;12.30;;;5.77;;
14330;SDS011;7249;49.376;11.080;2024-03-06T09:41:30;12.53;;;5.73;;
14330;SDS011;7249;49.376;11.080;2024-03-06T09:43:56;9.03;;;5.47;;
14330;SDS011;7249;49.376;11.080;2024-03-06T09:46:25;12.47;;;5.83;;
14330;SDS011;7249;49.376;11.080;2024-03-06T09:48:52;11.83;;;5.97;;
14330;SDS011;7249;49.376;11.080;2024-03-06T09:51:18;11.33;;;6.37;;
14330;SDS011;7249;49.376;11.080;2024-03-06T09:53:46;10.17;;;5.63;;
14330;SDS011;7249;49.376;11.080;2024-03-06T09:56:15;15.33;;;6.60;;
14330;SDS011;7249;49.376;11.080;2024-03-06T09:58:40;17.67;;;6.90;;
14330;SDS011;7249;49.376;11.080;2024-03-06T10:01:07;13.73;;;5.90;;
14330;SDS011;7249;49.376;11.080;2024-03-06T10:03:36;12.27;;;6.37;;
14330;SDS011;7249;49.376;11.080;2024-03-06T10:06:02;14.80;;;6.93;;
14330;SDS011;7249;49.376;11.080;2024-03-06T10:08:28;13.70;;;6.63;;
14330;SDS011;7249;49.376;11.080;2024-03-06T10:10:53;12.27;;;6.10;;
14330;SDS011;7249;49.376;11.080;2024-03-06T10:13:25;9.90;;;5.53;;
14330;SDS011;7249;49.376;11.080;2024-03-06T10:15:57;14.45;;;6.22;;
14330;SDS011;7249;49.376;11.080;2024-03-06T10:18:28;14.23;;;5.80;;
14330;SDS011;7249;49.376;11.080;2024-03-06T10:20:54;13.55;;;5.70;;
14330;SDS011;7249;49.376;11.080;2024-03-06T10:23:20;15.65;;;6.18;;
14330;SDS011;7249;49.376;11.080;2024-03-06T10:25:49;9.77;;;6.03;;
14330;SDS011;7249;49.376;11.080;2024-03-06T10:28:18;14.10;;;5.93;;
14330;SDS011;7249;49.376;11.080;2024-03-06T10:30:45;12.77;;;5.50;;
14330;SDS011;7249;49.376;11.080;2024-03-06T10:33:12;11.57;;;5.70;;
14330;SDS011;7249;49.376;11.080;2024-03-06T10:35:42;11.23;;;5.68;;
14330;SDS011;7249;49.376;11.080;2024-03-06T10:38:09;11.13;;;5.80;;
14330;SDS011;7249;49.376;11.080;2024-03-06T10:40:39;9.60;;;5.55;;
14330;SDS011;7249;49.376;11.080;2024-03-06T10:43:06;13.10;;;5.78;;
14330;SDS011;7249;49.376;11.080;2024-03-06T10:48:19;11.77;;;6.13;;
14330;SDS011;7249;49.376;11.080;2024-03-06T10:50:45;10.13;;;5.80;;
14330;SDS011;7249;49.376;11.080;2024-03-06T10:53:13;18.27;;;8.13;;
14330;SDS011;7249;49.376;11.080;2024-03-06T10:55:40;16.85;;;8.93;;
14330;SDS011;7249;49.376;11.080;2024-03-06T10:58:09;11.30;;;5.93;;
14330;SDS011;7249;49.376;11.080;2024-03-06T11:00:37;10.88;;;6.25;;
14330;SDS011;7249;49.376;11.080;2024-03-06T11:03:07;12.70;;;6.72;;
14330;SDS011;7249;49.376;11.080;2024-03-06T11:05:39;11.75;;;6.00;;
14330;SDS011;7249;49.376;11.080;2024-03-06T11:08:11;8.40;;;5.18;;
14330;SDS011;7249;49.376;11.080;2024-03-06T11:10:40;11.73;;;5.53;;
14330;SDS011;7249;49.376;11.080;2024-03-06T11:13:23;11.20;;;6.57;;
14330;SDS011;7249;49.376;11.080;2024-03-06T11:15:51;13.82;;;5.82;;
14330;SDS011;7249;49.376;11.080;2024-03-06T11:23:33;9.25;;;5.07;;
14330;SDS011;7249;49.376;11.080;2024-03-06T11:26:05;9.43;;;5.88;;
14330;SDS011;7249;49.376;11.080;2024-03-06T11:33:34;8.48;;;5.13;;
14330;SDS011;7249;49.376;11.080;2024-03-06T11:38:47;10.23;;;5.53;;
14330;SDS011;7249;49.376;11.080;2024-03-06T11:41:12;9.00;;;4.63;;
14330;SDS011;7249;49.376;11.080;2024-03-06T11:43:42;12.57;;;6.03;;
14330;SDS011;7249;49.376;11.080;2024-03-06T11:46:08;11.45;;;5.90;;
14330;SDS011;7249;49.376;11.080;2024-03-06T11:48:35;41.80;;;19.45;;
14330;SDS011;7249;49.376;11.080;2024-03-06T11:51:03;21.75;;;11.07;;
14330;SDS011;7249;49.376;11.080;2024-03-06T11:53:29;10.65;;;5.72;;
14330;SDS011;7249;49.376;11.080;2024-03-06T11:55:55;10.43;;;5.72;;
14330;SDS011;7249;49.376;11.080;2024-03-06T11:58:22;10.50;;;5.93;;
14330;SDS011;7249;49.376;11.080;2024-03-06T12:00:48;10.27;;;5.60;;
14330;SDS011;7249;49.376;11.080;2024-03-06T12:03:13;9.93;;;5.80;;
14330;SDS011;7249;49.376;11.080;2024-03-06T12:05:39;10.37;;;5.87;;
14330;SDS011;7249;49.376;11.080;2024-03-06T12:08:06;12.38;;;6.32;;
14330;SDS011;7249;49.376;11.080;2024-03-06T12:10:38;9.07;;;5.40;;
14330;SDS011;7249;49.376;11.080;2024-03-06T12:13:07;10.43;;;5.57;;
14330;SDS011;7249;49.376;11.080;2024-03-06T12:15:33;9.85;;;5.65;;
14330;SDS011;7249;49.376;11.080;2024-03-06T12:18:00;8.57;;;5.10;;
14330;SDS011;7249;49.376;11.080;2024-03-06T12:20:26;9.27;;;5.37;;
14330;SDS011;7249;49.376;11.080;2024-03-06T12:22:53;9.55;;;5.13;;
14330;SDS011;7249;49.376;11.080;2024-03-06T12:25:21;9.85;;;5.63;;
14330;SDS011;7249;49.376;11.080;2024-03-06T12:27:48;8.27;;;5.25;;
14330;SDS011;7249;49.376;11.080;2024-03-06T12:30:17;9.95;;;4.95;;
14330;SDS011;7249;49.376;11.080;2024-03-06T12:33:00;9.68;;;6.03;;
14330;SDS011;7249;49.376;11.080;2024-03-06T12:35:30;7.95;;;4.35;;
14330;SDS011;7249;49.376;11.080;2024-03-06T12:37:56;7.72;;;5.15;;
14330;SDS011;7249;49.376;11.080;2024-03-06T12:40:23;14.80;;;5.55;;
14330;SDS011;7249;49.376;11.080;2024-03-06T12:42:49;9.70;;;5.60;;
14330;SDS011;7249;49.376;11.080;2024-03-06T12:45:17;9.48;;;5.35;;
14330;SDS011;7249;49.376;11.080;2024-03-06T12:47:43;6.22;;;4.43;;
14330;SDS011;7249;49.376;11.080;2024-03-06T12:50:13;8.95;;;5.43;;
14330;SDS011;7249;49.376;11.080;2024-03-06T12:52:39;7.47;;;4.47;;
14330;SDS011;7249;49.376;11.080;2024-03-06T12:55:05;7.35;;;4.30;;
14330;SDS011;7249;49.376;11.080;2024-03-06T12:57:32;7.57;;;4.47;;
14330;SDS011;7249;49.376;11.080;2024-03-06T12:59:58;8.80;;;4.65;;
14330;SDS011;7249;49.376;11.080;2024-03-06T13:02:24;9.50;;;4.88;;
14330;SDS011;7249;49.376;11.080;2024-03-06T13:04:50;7.65;;;3.90;;
14330;SDS011;7249;49.376;11.080;2024-03-06T13:07:16;6.97;;;4.03;;
14330;SDS011;7249;49.376;11.080;2024-03-06T13:09:42;9.20;;;4.68;;
14330;SDS011;7249;49.376;11.080;2024-03-06T13:12:07;8.60;;;4.80;;
14330;SDS011;7249;49.376;11.080;2024-03-06T13:14:34;9.45;;;4.72;;
14330;SDS011;7249;49.376;11.080;2024-03-06T13:17:00;8.00;;;3.90;;
14330;SDS011;7249;49.376;11.080;2024-03-06T13:19:26;10.25;;;5.25;;
14330;SDS011;7249;49.376;11.080;2024-03-06T13:21:52;7.32;;;4.55;;
14330;SDS011;7249;49.376;11.080;2024-03-06T13:24:18;6.75;;;4.47;;
14330;SDS011;7249;49.376;11.080;2024-03-06T13:26:47;5.03;;;3.67;;
14330;SDS011;7249;49.376;11.080;2024-03-06T13:29:13;7.18;;;3.78;;
14330;SDS011;7249;49.376;11.080;2024-03-06T13:31:39;10.32;;;4.40;;
14330;SDS011;7249;49.376;11.080;2024-03-06T13:34:05;8.00;;;4.30;;
14330;SDS011;7249;49.376;11.080;2024-03-06T13:36:30;7.05;;;4.53;;
14330;SDS011;7249;49.376;11.080;2024-03-06T13:38:56;7.57;;;4.45;;
14330;SDS011;7249;49.376;11.080;2024-03-06T13:41:22;7.95;;;4.72;;
14330;SDS011;7249;49.376;11.080;2024-03-06T13:43:48;5.95;;;3.95;;
14330;SDS011;7249;49.376;11.080;2024-03-06T13:46:13;8.82;;;5.03;;
14330;SDS011;7249;49.376;11.080;2024-03-06T13:48:39;8.77;;;4.50;;
14330;SDS011;7249;49.376;11.080;2024-03-06T13:51:05;9.65;;;4.15;;
14330;SDS011;7249;49.376;11.080;2024-03-06T13:53:31;8.85;;;4.53;;
14330;SDS011;7249;49.376;11.080;2024-03-06T13:55:57;7.05;;;4.03;;
14330;SDS011;7249;49.376;11.080;2024-03-06T13:58:23;13.00;;;5.75;;
14330;SDS011;7249;49.376;11.080;2024-03-06T14:00:48;6.38;;;4.00;;
14330;SDS011;7249;49.376;11.080;2024-03-06T14:03:14;7.15;;;4.53;;
14330;SDS011;7249;49.376;11.080;2024-03-06T14:05:40;8.82;;;4.13;;
14330;SDS011;7249;49.376;11.080;2024-03-06T14:08:06;6.85;;;4.47;;
14330;SDS011;7249;49.376;11.080;2024-03-06T14:10:32;10.48;;;5.97;;
14330;SDS011;7249;49.376;11.080;2024-03-06T14:12:59;7.90;;;4.53;;
14330;SDS011;7249;49.376;11.080;2024-03-06T14:15:25;8.98;;;4.10;;
14330;SDS011;7249;49.376;11.080;2024-03-06T14:17:51;9.60;;;4.70;;
14330;SDS011;7249;49.376;11.080;2024-03-06T14:20:19;6.75;;;3.78;;
14330;SDS011;7249;49.376;11.080;2024-03-06T14:22:45;9.60;;;4.82;;
14330;SDS011;7249;49.376;11.080;2024-03-06T14:25:11;6.38;;;4.35;;
14330;SDS011;7249;49.376;11.080;2024-03-06T14:27:37;7.07;;;4.43;;
14330;SDS011;7249;49.376;11.080;2024-03-06T14:30:03;8.32;;;4.53;;
14330;SDS011;7249;49.376;11.080;2024-03-06T14:32:32;10.05;;;5.28;;
14330;SDS011;7249;49.376;11.080;2024-03-06T14:34:58;9.43;;;4.90;;
14330;SDS011;7249;49.376;11.080;2024-03-06T14:37:24;8.98;;;4.82;;
14330;SDS011;7249;49.376;11.080;2024-03-06T14:39:50;9.20;;;4.90;;
14330;SDS011;7249;49.376;11.080;2024-03-06T14:42:18;9.15;;;4.90;;
14330;SDS011;7249;49.376;11.080;2024-03-06T14:44:44;8.13;;;4.32;;
14330;SDS011;7249;49.376;11.080;2024-03-06T14:47:10;8.02;;;4.28;;
14330;SDS011;7249;49.376;11.080;2024-03-06T14:49:35;8.48;;;4.85;;
14330;SDS011;7249;49.376;11.080;2024-03-06T14:52:01;7.53;;;4.38;;